createdAt,value
2023-03-30T00:01:32.117Z,16.58
2023-03-30T00:03:33.724Z,15.07
2023-03-30T00:05:35.730Z,14.68
2023-03-30T00:07:42.279Z,15.93
2023-03-30T00:09:44.571Z,15.55
2023-03-30T00:11:46.053Z,15.98
2023-03-30T00:13:47.461Z,16.15
2023-03-30T00:15:49.345Z,15.65
2023-03-30T00:17:55.091Z,15.20
2023-03-30T00:19:56.892Z,16.10
2023-03-30T00:21:58.421Z,14.20
2023-03-30T00:23:59.868Z,14.43
2023-03-30T00:26:01.538Z,15.38
2023-03-30T00:28:03.109Z,12.52
2023-03-30T00:30:05.289Z,15.02
2023-03-30T00:32:06.814Z,14.98
2023-03-30T00:34:09.666Z,15.80
2023-03-30T00:36:11.208Z,14.45
2023-03-30T00:38:12.650Z,14.57
2023-03-30T00:40:16.481Z,14.85
2023-03-30T00:42:18.014Z,13.95
2023-03-30T00:44:38.140Z,14.35
2023-03-30T00:46:39.568Z,12.57
2023-03-30T00:48:41.016Z,12.27
2023-03-30T00:50:46.769Z,12.27
2023-03-30T00:52:49.248Z,12.88
2023-03-30T00:54:55.958Z,12.63
2023-03-30T00:56:57.387Z,11.70
2023-03-30T00:59:00.176Z,12.65
2023-03-30T01:01:02.987Z,13.35
2023-03-30T01:03:08.037Z,13.77
2023-03-30T01:05:11.112Z,12.00
2023-03-30T01:07:12.726Z,11.82
2023-03-30T01:09:15.455Z,10.93
2023-03-30T01:11:16.930Z,11.90
2023-03-30T01:13:19.258Z,12.82
2023-03-30T01:15:21.677Z,12.23
2023-03-30T01:17:46.219Z,12.32
2023-03-30T01:19:48.276Z,11.95
2023-03-30T01:21:55.748Z,12.65
2023-03-30T01:24:05.262Z,11.10
2023-03-30T01:26:28.904Z,12.27
2023-03-30T01:28:48.239Z,10.77
2023-03-30T01:31:06.659Z,11.35
2023-03-30T01:33:08.298Z,11.50
2023-03-30T01:35:12.822Z,12.00
2023-03-30T01:37:17.223Z,10.55
2023-03-30T01:39:30.729Z,11.13
2023-03-30T01:41:47.268Z,12.05
2023-03-30T01:43:52.765Z,12.40
2023-03-30T01:46:03.366Z,17.75
2023-03-30T01:48:04.917Z,12.80
2023-03-30T01:50:09.756Z,16.77
2023-03-30T01:52:14.366Z,12.05
2023-03-30T01:54:22.897Z,12.65
2023-03-30T01:56:33.523Z,13.40
2023-03-30T01:58:39.882Z,10.98
2023-03-30T02:00:43.798Z,10.85
2023-03-30T02:02:49.060Z,10.15
2023-03-30T02:04:53.862Z,10.13
2023-03-30T02:07:00.668Z,10.50
2023-03-30T02:09:02.104Z,10.38
2023-03-30T02:11:04.028Z,10.32
2023-03-30T02:13:06.233Z,10.70
2023-03-30T02:15:10.131Z,9.25
2023-03-30T02:17:17.166Z,9.65
2023-03-30T02:19:18.882Z,8.98
2023-03-30T02:21:20.650Z,9.25
2023-03-30T02:23:23.738Z,8.98
2023-03-30T02:25:25.551Z,9.00
2023-03-30T02:27:27.700Z,9.27
2023-03-30T02:29:29.328Z,8.20
2023-03-30T02:31:31.246Z,8.95
2023-03-30T02:33:41.501Z,8.68
2023-03-30T02:35:48.985Z,8.55
2023-03-30T02:38:09.781Z,9.18
2023-03-30T02:40:37.936Z,9.15
2023-03-30T02:43:00.145Z,9.43
2023-03-30T02:45:09.258Z,9.70
2023-03-30T02:47:28.822Z,9.00
2023-03-30T02:49:36.342Z,8.93
2023-03-30T02:51:40.484Z,8.90
2023-03-30T02:53:53.182Z,8.85
2023-03-30T02:56:04.270Z,9.43
2023-03-30T02:58:23.818Z,8.40
2023-03-30T03:00:36.004Z,8.40
2023-03-30T03:02:40.307Z,8.98
2023-03-30T03:04:43.695Z,8.68
2023-03-30T03:06:46.173Z,8.52
2023-03-30T03:08:48.227Z,8.68
2023-03-30T03:10:51.202Z,8.38
2023-03-30T03:12:53.377Z,8.05
2023-03-30T03:14:54.795Z,8.43
2023-03-30T03:16:56.524Z,9.13
2023-03-30T03:18:58.005Z,8.80
2023-03-30T03:20:59.449Z,8.35
2023-03-30T03:23:00.901Z,8.57
2023-03-30T03:25:02.711Z,8.48
2023-03-30T03:27:04.208Z,8.98
2023-03-30T03:29:05.742Z,7.70
2023-03-30T03:31:07.775Z,8.68
2023-03-30T03:33:09.530Z,11.07
2023-03-30T03:35:11.078Z,9.38
2023-03-30T03:37:12.848Z,16.50
2023-03-30T03:39:14.295Z,24.95
2023-03-30T03:41:15.725Z,11.75
2023-03-30T03:43:17.444Z,8.75
2023-03-30T03:45:18.914Z,8.05
2023-03-30T03:47:20.482Z,7.35
2023-03-30T03:49:22.233Z,7.90
2023-03-30T03:51:23.651Z,6.95
2023-03-30T03:53:26.464Z,7.70
2023-03-30T03:55:29.262Z,7.78
2023-03-30T03:57:31.016Z,9.05
2023-03-30T03:59:32.700Z,7.63
2023-03-30T04:01:34.174Z,7.32
2023-03-30T04:03:35.657Z,7.75
2023-03-30T04:05:37.076Z,7.32
2023-03-30T04:07:38.516Z,8.82
2023-03-30T04:09:39.962Z,8.05
2023-03-30T04:11:41.843Z,8.40
2023-03-30T04:13:43.306Z,8.00
2023-03-30T04:15:44.727Z,9.20
2023-03-30T04:17:50.019Z,8.07
2023-03-30T04:19:53.818Z,7.35
2023-03-30T04:21:55.551Z,7.20
2023-03-30T04:23:57.151Z,6.25
2023-03-30T04:25:58.606Z,6.85
2023-03-30T04:28:00.121Z,6.00
2023-03-30T04:30:02.251Z,7.28
2023-03-30T04:32:04.957Z,6.55
2023-03-30T04:34:06.466Z,6.00
2023-03-30T04:36:08.175Z,6.15
2023-03-30T04:38:09.625Z,8.77
2023-03-30T04:40:11.333Z,7.38
2023-03-30T04:42:15.635Z,6.88
2023-03-30T04:44:20.458Z,6.80
2023-03-30T04:46:21.925Z,7.75
2023-03-30T04:48:24.041Z,9.18
2023-03-30T04:50:25.490Z,10.77
2023-03-30T04:52:27.372Z,8.93
2023-03-30T04:54:30.764Z,11.60
2023-03-30T04:56:34.166Z,14.27
2023-03-30T04:58:35.677Z,7.68
2023-03-30T05:00:37.474Z,9.73
2023-03-30T05:02:38.970Z,9.15
2023-03-30T05:04:40.489Z,10.50
2023-03-30T05:06:42.124Z,9.75
2023-03-30T05:08:43.548Z,9.93
2023-03-30T05:10:44.993Z,11.43
2023-03-30T05:12:46.433Z,13.52
2023-03-30T05:14:47.980Z,10.60
2023-03-30T05:16:49.451Z,16.02
2023-03-30T05:18:51.793Z,8.00
2023-03-30T05:20:56.523Z,8.48
2023-03-30T05:22:58.155Z,8.30
2023-03-30T05:24:59.592Z,9.43
2023-03-30T05:27:02.591Z,9.80
2023-03-30T05:29:03.976Z,10.38
2023-03-30T05:31:05.706Z,8.93
2023-03-30T05:33:09.959Z,9.05
2023-03-30T05:35:12.234Z,7.63
2023-03-30T05:37:14.204Z,9.45
2023-03-30T05:39:15.619Z,8.43
2023-03-30T05:41:17.476Z,9.73
2023-03-30T05:43:18.900Z,8.40
2023-03-30T05:45:20.419Z,9.25
2023-03-30T05:47:22.119Z,12.80
2023-03-30T05:49:23.653Z,10.63
2023-03-30T05:51:25.242Z,8.90
2023-03-30T05:53:26.677Z,10.32
2023-03-30T05:55:28.299Z,9.45
2023-03-30T05:57:29.821Z,7.25
2023-03-30T05:59:31.409Z,8.50
2023-03-30T06:01:33.616Z,9.77
2023-03-30T06:03:35.440Z,10.05
2023-03-30T06:05:39.197Z,12.10
2023-03-30T06:07:40.591Z,9.02
2023-03-30T06:09:42.271Z,12.68
2023-03-30T06:11:43.695Z,33.65
2023-03-30T06:13:45.343Z,20.85
2023-03-30T06:15:47.256Z,36.05
2023-03-30T06:17:48.980Z,12.45
2023-03-30T06:19:50.549Z,8.88
2023-03-30T06:21:52.170Z,8.50
2023-03-30T06:23:53.574Z,8.95
2023-03-30T06:25:55.649Z,6.78
2023-03-30T06:27:57.708Z,9.45
2023-03-30T06:29:59.267Z,9.52
2023-03-30T06:32:03.674Z,9.05
2023-03-30T06:34:05.204Z,7.88
2023-03-30T06:36:09.850Z,8.73
2023-03-30T06:38:11.442Z,6.93
2023-03-30T06:40:17.380Z,7.80
2023-03-30T06:42:18.884Z,7.15
2023-03-30T06:44:20.408Z,6.07
2023-03-30T06:46:21.861Z,6.82
2023-03-30T06:48:24.213Z,6.47
2023-03-30T06:50:25.830Z,8.02
2023-03-30T06:52:27.272Z,7.68
2023-03-30T06:54:28.689Z,6.40
2023-03-30T06:56:30.407Z,7.78
2023-03-30T06:58:31.871Z,6.85
2023-03-30T07:00:33.664Z,6.60
2023-03-30T07:02:35.238Z,6.38
2023-03-30T07:04:37.960Z,6.40
2023-03-30T07:06:39.436Z,7.47
2023-03-30T07:08:40.892Z,6.00
2023-03-30T07:10:42.986Z,5.93
2023-03-30T07:12:44.716Z,5.85
2023-03-30T07:14:46.320Z,6.32
2023-03-30T07:16:48.761Z,5.85
2023-03-30T07:18:50.540Z,13.20
2023-03-30T07:20:51.985Z,5.72
2023-03-30T07:22:53.577Z,5.47
2023-03-30T07:24:55.569Z,5.80
2023-03-30T07:26:57.326Z,4.95
2023-03-30T07:28:58.805Z,5.45
2023-03-30T07:31:07.570Z,5.53
2023-03-30T07:33:09.695Z,5.15
2023-03-30T07:35:11.171Z,5.38
2023-03-30T07:37:20.005Z,5.55
2023-03-30T07:39:22.242Z,5.72
2023-03-30T07:41:23.684Z,5.85
2023-03-30T07:43:25.156Z,5.68
2023-03-30T07:45:27.209Z,6.78
2023-03-30T07:47:28.598Z,6.75
2023-03-30T07:49:30.328Z,5.57
2023-03-30T07:51:31.843Z,6.25
2023-03-30T07:53:33.540Z,5.70
2023-03-30T07:55:35.118Z,5.88
2023-03-30T07:57:37.057Z,5.50
2023-03-30T07:59:39.078Z,5.53
2023-03-30T08:01:40.787Z,6.22
2023-03-30T08:03:45.071Z,6.07
2023-03-30T08:05:56.781Z,6.82
2023-03-30T08:07:58.357Z,5.90
2023-03-30T08:09:59.878Z,5.90
2023-03-30T08:12:01.480Z,6.38
2023-03-30T08:14:03.832Z,6.85
2023-03-30T08:16:05.850Z,5.40
2023-03-30T08:18:08.492Z,6.57
2023-03-30T08:20:12.991Z,8.18
2023-03-30T08:22:14.858Z,6.25
2023-03-30T08:24:16.687Z,6.90
2023-03-30T08:26:18.175Z,7.40
2023-03-30T08:28:20.244Z,6.43
2023-03-30T08:30:22.037Z,6.43
2023-03-30T08:32:23.898Z,9.88
2023-03-30T08:34:25.321Z,11.57
2023-03-30T08:36:26.691Z,11.50
2023-03-30T08:38:29.565Z,17.15
2023-03-30T08:40:31.436Z,7.95
2023-03-30T08:42:41.964Z,6.65
2023-03-30T08:44:44.288Z,9.27
2023-03-30T08:46:47.549Z,12.43
2023-03-30T08:48:49.349Z,9.05
2023-03-30T08:50:56.026Z,7.90
2023-03-30T08:52:57.482Z,9.82
2023-03-30T08:54:59.039Z,9.40
2023-03-30T08:57:15.962Z,11.48
2023-03-30T08:59:20.528Z,12.20
2023-03-30T09:01:40.602Z,11.52
2023-03-30T09:04:00.062Z,18.90
2023-03-30T09:06:06.914Z,10.57
2023-03-30T09:08:17.656Z,9.00
2023-03-30T09:10:20.002Z,10.13
2023-03-30T09:12:39.162Z,8.90
2023-03-30T09:14:44.439Z,12.50
2023-03-30T09:16:56.034Z,18.15
2023-03-30T09:18:58.450Z,9.73
2023-03-30T09:21:01.402Z,14.35
2023-03-30T09:23:04.093Z,11.43
2023-03-30T09:25:17.183Z,10.23
2023-03-30T09:27:22.137Z,7.28
2023-03-30T09:29:28.304Z,7.10
2023-03-30T09:31:40.733Z,8.00
2023-03-30T09:34:01.098Z,11.05
2023-03-30T09:36:02.787Z,7.63
2023-03-30T09:38:04.669Z,6.78
2023-03-30T09:40:35.351Z,5.75
2023-03-30T09:42:47.650Z,5.90
2023-03-30T09:44:52.171Z,6.50
2023-03-30T09:46:57.352Z,5.18
2023-03-30T09:49:11.927Z,5.43
2023-03-30T09:51:16.231Z,7.05
2023-03-30T09:53:25.130Z,6.30
2023-03-30T09:55:26.584Z,6.22
2023-03-30T09:57:32.439Z,8.30
2023-03-30T09:59:35.639Z,5.50
2023-03-30T10:01:38.611Z,5.10
2023-03-30T10:03:40.992Z,5.03
2023-03-30T10:05:42.584Z,5.47
2023-03-30T10:07:52.809Z,6.03
2023-03-30T10:09:54.888Z,4.90
2023-03-30T10:11:57.546Z,5.55
2023-03-30T10:13:59.806Z,5.10
2023-03-30T10:16:09.218Z,7.97
2023-03-30T10:18:33.985Z,7.03
2023-03-30T10:20:36.571Z,6.28
2023-03-30T10:22:48.095Z,5.07
2023-03-30T10:24:50.924Z,5.80
2023-03-30T10:27:13.266Z,4.93
2023-03-30T10:29:16.794Z,4.85
2023-03-30T10:31:18.534Z,4.45
2023-03-30T10:33:20.617Z,4.80
2023-03-30T10:35:24.342Z,4.15
2023-03-30T10:37:28.209Z,4.80
2023-03-30T10:39:32.035Z,4.25
2023-03-30T10:41:34.948Z,3.95
2023-03-30T10:43:36.864Z,5.40
2023-03-30T10:45:46.970Z,6.00
2023-03-30T10:48:07.327Z,10.35
2023-03-30T10:50:09.240Z,7.90
2023-03-30T10:52:19.860Z,5.20
2023-03-30T10:54:36.380Z,5.68
2023-03-30T10:56:39.433Z,4.82
2023-03-30T10:58:59.865Z,5.80
2023-03-30T11:01:22.375Z,4.55
2023-03-30T11:03:32.681Z,4.82
2023-03-30T11:05:42.922Z,4.07
2023-03-30T11:09:49.074Z,4.13
2023-03-30T11:11:59.702Z,4.50
2023-03-30T11:14:02.511Z,4.95
2023-03-30T11:16:11.010Z,5.00
2023-03-30T11:18:15.637Z,3.50
2023-03-30T11:20:24.515Z,2.80
2023-03-30T11:22:33.464Z,2.92
2023-03-30T11:24:35.885Z,4.30
2023-03-30T11:26:52.347Z,3.05
2023-03-30T11:29:08.640Z,4.32
2023-03-30T11:31:16.185Z,2.42
2023-03-30T11:33:36.625Z,3.28
2023-03-30T11:35:41.402Z,4.15
2023-03-30T11:38:06.830Z,4.78
2023-03-30T11:40:14.079Z,5.00
2023-03-30T11:42:24.271Z,4.40
2023-03-30T11:44:27.597Z,3.63
2023-03-30T11:46:41.207Z,3.80
2023-03-30T11:49:01.203Z,4.00
2023-03-30T11:51:06.171Z,3.85
2023-03-30T11:53:21.898Z,4.10
2023-03-30T11:55:43.609Z,3.80
2023-03-30T11:57:52.557Z,3.15
2023-03-30T12:00:09.085Z,5.57
2023-03-30T12:02:10.559Z,3.50
2023-03-30T12:04:14.614Z,3.58
2023-03-30T12:06:25.072Z,3.70
2023-03-30T12:08:38.643Z,3.17
2023-03-30T12:10:41.492Z,4.43
2023-03-30T12:12:44.198Z,3.22
2023-03-30T12:14:46.027Z,3.05
2023-03-30T12:16:51.993Z,3.00
2023-03-30T12:18:59.592Z,2.78
2023-03-30T12:21:10.233Z,3.10
2023-03-30T12:23:22.143Z,2.90
2023-03-30T12:25:32.856Z,2.90
2023-03-30T12:27:34.948Z,2.78
2023-03-30T12:30:01.672Z,3.80
2023-03-30T12:32:06.502Z,3.75
2023-03-30T12:34:08.282Z,3.53
2023-03-30T12:36:26.277Z,3.28
2023-03-30T12:38:48.177Z,4.22
2023-03-30T12:40:54.726Z,4.78
2023-03-30T12:43:08.695Z,3.42
2023-03-30T12:45:21.383Z,3.45
2023-03-30T12:47:31.272Z,3.53
2023-03-30T12:49:58.987Z,3.97
2023-03-30T12:52:14.572Z,3.70
2023-03-30T12:54:18.876Z,4.75
2023-03-30T12:56:32.663Z,7.07
2023-03-30T12:58:42.954Z,13.65
2023-03-30T13:00:46.049Z,16.13
2023-03-30T13:02:47.700Z,57.15
2023-03-30T13:04:49.666Z,14.00
2023-03-30T13:06:59.167Z,4.93
2023-03-30T13:09:12.608Z,4.78
2023-03-30T13:11:14.129Z,3.92
2023-03-30T13:13:23.112Z,6.00
2023-03-30T13:15:57.984Z,4.13
2023-03-30T13:18:04.105Z,13.00
2023-03-30T13:20:29.922Z,5.40
2023-03-30T13:22:32.271Z,5.55
2023-03-30T13:24:33.982Z,5.90
2023-03-30T13:26:44.275Z,12.65
2023-03-30T13:28:55.131Z,10.35
2023-03-30T13:31:01.523Z,6.10
2023-03-30T13:33:04.884Z,5.32
2023-03-30T13:35:22.756Z,14.13
2023-03-30T13:37:43.217Z,28.27
2023-03-30T13:39:58.043Z,21.00
2023-03-30T13:42:11.498Z,6.55
2023-03-30T13:44:15.986Z,17.52
2023-03-30T13:46:17.981Z,37.50
2023-03-30T13:48:43.246Z,47.03
2023-03-30T13:50:46.808Z,13.63
2023-03-30T13:52:49.030Z,31.52
2023-03-30T13:54:50.834Z,19.50
2023-03-30T13:56:56.826Z,14.40
2023-03-30T13:59:06.617Z,9.38
2023-03-30T14:01:08.084Z,6.43
2023-03-30T14:03:28.389Z,55.38
2023-03-30T14:05:30.576Z,22.70
2023-03-30T14:07:40.392Z,17.42
2023-03-30T14:09:42.409Z,36.88
2023-03-30T14:11:46.130Z,30.15
2023-03-30T14:13:49.191Z,16.42
2023-03-30T14:15:51.373Z,21.75
2023-03-30T14:17:57.973Z,15.07
2023-03-30T14:19:59.357Z,5.72
2023-03-30T14:22:02.246Z,9.07
2023-03-30T14:24:04.033Z,21.02
2023-03-30T14:26:11.919Z,19.70
2023-03-30T14:28:14.992Z,17.85
2023-03-30T14:30:19.447Z,17.40
2023-03-30T14:32:23.358Z,16.55
2023-03-30T14:34:26.626Z,10.52
2023-03-30T14:36:28.184Z,23.85
2023-03-30T14:38:31.495Z,11.68
2023-03-30T14:40:37.507Z,12.52
2023-03-30T14:42:39.477Z,14.75
2023-03-30T14:44:41.401Z,11.52
2023-03-30T14:46:46.760Z,31.17
2023-03-30T14:48:50.686Z,28.30
2023-03-30T14:50:52.477Z,39.25
2023-03-30T14:52:54.659Z,30.58
2023-03-30T14:55:05.047Z,59.00
2023-03-30T14:57:09.176Z,33.03
2023-03-30T14:59:12.366Z,101.47
2023-03-30T15:01:16.255Z,69.20
2023-03-30T15:03:30.355Z,37.60
2023-03-30T15:05:36.397Z,67.75
2023-03-30T15:07:37.916Z,27.15
2023-03-30T15:09:39.284Z,48.75
2023-03-30T15:11:41.074Z,31.65
2023-03-30T15:13:52.830Z,17.52
2023-03-30T15:15:54.745Z,30.70
2023-03-30T15:17:56.478Z,17.83
2023-03-30T15:19:59.898Z,20.23
2023-03-30T15:22:03.271Z,13.00
2023-03-30T15:24:06.618Z,20.27
2023-03-30T15:26:08.922Z,22.45
2023-03-30T15:28:20.640Z,12.23
2023-03-30T15:30:43.984Z,20.75
2023-03-30T15:32:45.709Z,29.23
2023-03-30T15:34:59.032Z,16.42
2023-03-30T15:37:00.833Z,12.35
2023-03-30T15:39:02.855Z,15.27
2023-03-30T15:41:08.995Z,20.42
2023-03-30T15:43:19.395Z,20.85
2023-03-30T15:45:22.884Z,16.95
2023-03-30T15:47:24.382Z,16.00
2023-03-30T15:49:29.707Z,13.32
2023-03-30T15:51:36.861Z,32.67
2023-03-30T15:53:55.910Z,46.60
2023-03-30T15:55:59.032Z,26.17
2023-03-30T15:58:00.525Z,16.35
2023-03-30T16:00:05.360Z,32.28
2023-03-30T16:02:20.819Z,13.23
2023-03-30T16:04:23.209Z,13.80
2023-03-30T16:06:24.756Z,10.13
2023-03-30T16:08:26.339Z,21.27
2023-03-30T16:10:29.477Z,31.65
2023-03-30T16:12:31.215Z,42.47
2023-03-30T16:14:32.707Z,11.95
2023-03-30T16:16:34.411Z,10.32
2023-03-30T16:18:35.921Z,21.02
2023-03-30T16:20:37.358Z,25.45
2023-03-30T16:22:38.875Z,23.63
2023-03-30T16:24:42.160Z,28.27
2023-03-30T16:26:43.592Z,18.65
2023-03-30T16:28:45.116Z,35.55
2023-03-30T16:30:50.660Z,30.95
2023-03-30T16:32:52.244Z,26.08
2023-03-30T16:34:54.993Z,15.20
2023-03-30T16:36:56.590Z,24.38
2023-03-30T16:38:58.016Z,20.45
2023-03-30T16:41:00.358Z,23.00
2023-03-30T16:43:01.814Z,21.30
2023-03-30T16:45:04.023Z,26.70
2023-03-30T16:47:05.500Z,24.92
2023-03-30T16:49:11.737Z,21.60
2023-03-30T16:51:13.860Z,24.80
2023-03-30T16:53:15.566Z,22.20
2023-03-30T16:55:17.587Z,24.75
2023-03-30T16:57:19.000Z,27.15
2023-03-30T16:59:22.118Z,20.88
2023-03-30T17:01:23.659Z,16.42
2023-03-30T17:03:25.290Z,18.77
2023-03-30T17:05:26.662Z,15.27
2023-03-30T17:07:28.244Z,14.18
2023-03-30T17:09:30.145Z,11.98
2023-03-30T17:11:31.690Z,13.80
2023-03-30T17:13:33.366Z,14.07
2023-03-30T17:15:38.335Z,9.73
2023-03-30T17:17:39.973Z,13.93
2023-03-30T17:19:41.987Z,17.48
2023-03-30T17:21:43.943Z,15.63
2023-03-30T17:23:47.734Z,13.20
2023-03-30T17:25:50.065Z,15.73
2023-03-30T17:27:51.636Z,17.02
2023-03-30T17:29:53.064Z,16.35
2023-03-30T17:31:54.496Z,18.00
2023-03-30T17:33:56.919Z,18.42
2023-03-30T17:36:04.050Z,17.77
2023-03-30T17:38:07.997Z,18.98
2023-03-30T17:40:17.254Z,18.38
2023-03-30T17:42:18.664Z,19.80
2023-03-30T17:44:20.174Z,18.95
2023-03-30T17:46:21.929Z,21.40
2023-03-30T17:48:23.524Z,21.55
2023-03-30T17:50:29.149Z,19.75
2023-03-30T17:52:30.604Z,21.88
2023-03-30T17:54:33.274Z,17.55
2023-03-30T17:56:34.705Z,20.30
2023-03-30T17:58:36.403Z,19.42
2023-03-30T18:00:37.866Z,19.90
2023-03-30T18:02:39.415Z,21.80
2023-03-30T18:04:41.056Z,28.95
2023-03-30T18:06:43.079Z,30.95
2023-03-30T18:08:44.520Z,116.80
2023-03-30T18:10:49.450Z,125.22
2023-03-30T18:12:51.503Z,33.38
2023-03-30T18:14:52.922Z,32.22
2023-03-30T18:17:05.604Z,43.35
2023-03-30T18:19:11.409Z,66.68
2023-03-30T18:21:12.815Z,24.00
2023-03-30T18:23:14.267Z,26.33
2023-03-30T18:25:29.271Z,26.90
2023-03-30T18:27:34.138Z,20.77
2023-03-30T18:29:37.733Z,23.42
2023-03-30T18:31:39.262Z,23.00
2023-03-30T18:33:40.739Z,23.75
2023-03-30T18:35:42.677Z,20.98
2023-03-30T18:37:44.643Z,22.48
2023-03-30T18:39:46.437Z,25.73
2023-03-30T18:41:48.448Z,24.92
2023-03-30T18:43:49.853Z,24.60
2023-03-30T18:45:51.327Z,24.17
2023-03-30T18:47:53.645Z,20.60
2023-03-30T18:49:55.130Z,23.13
2023-03-30T18:51:56.560Z,20.00
2023-03-30T18:53:58.154Z,19.92
2023-03-30T18:56:01.554Z,19.55
2023-03-30T18:58:06.513Z,21.50
2023-03-30T19:00:27.609Z,19.30
2023-03-30T19:02:29.144Z,21.55
2023-03-30T19:04:30.683Z,28.83
2023-03-30T19:06:32.452Z,19.95
2023-03-30T19:08:33.843Z,24.13
2023-03-30T19:10:36.741Z,23.73
2023-03-30T19:12:38.562Z,24.27
2023-03-30T19:14:40.134Z,22.73
2023-03-30T19:16:41.976Z,18.42
2023-03-30T19:18:43.548Z,18.20
2023-03-30T19:20:45.488Z,17.58
2023-03-30T19:22:47.647Z,17.80
2023-03-30T19:24:49.162Z,18.73
2023-03-30T19:26:50.917Z,20.83
2023-03-30T19:28:52.317Z,19.45
2023-03-30T19:30:53.736Z,18.02
2023-03-30T19:32:56.178Z,19.20
2023-03-30T19:34:57.723Z,20.17
2023-03-30T19:37:01.532Z,21.45
2023-03-30T19:39:03.027Z,20.60
2023-03-30T19:41:04.882Z,22.38
2023-03-30T19:43:07.581Z,22.60
2023-03-30T19:45:08.971Z,20.65
2023-03-30T19:47:10.412Z,19.98
2023-03-30T19:49:11.827Z,20.05
2023-03-30T19:51:13.339Z,25.27
2023-03-30T19:53:15.181Z,20.38
2023-03-30T19:55:17.779Z,20.80
2023-03-30T19:57:19.787Z,20.08
2023-03-30T19:59:21.692Z,20.48
2023-03-30T20:01:23.178Z,19.55
2023-03-30T20:03:25.144Z,20.52
2023-03-30T20:05:26.846Z,21.17
2023-03-30T20:07:28.476Z,20.80
2023-03-30T20:09:30.011Z,21.23
2023-03-30T20:11:31.444Z,20.15
2023-03-30T20:13:32.929Z,20.63
2023-03-30T20:15:34.312Z,20.63
2023-03-30T20:17:36.557Z,26.88
2023-03-30T20:19:40.880Z,23.75
2023-03-30T20:21:42.473Z,23.60
2023-03-30T20:23:44.105Z,23.30
2023-03-30T20:25:50.448Z,34.88
2023-03-30T20:27:52.514Z,28.85
2023-03-30T20:29:54.005Z,24.95
2023-03-30T20:31:55.454Z,26.25
2023-03-30T20:33:58.489Z,31.15
2023-03-30T20:35:59.954Z,36.40
2023-03-30T20:38:04.457Z,27.52
2023-03-30T20:40:09.899Z,25.02
2023-03-30T20:42:11.611Z,26.25
2023-03-30T20:44:13.209Z,27.25
2023-03-30T20:46:15.702Z,28.48
2023-03-30T20:48:26.674Z,33.13
2023-03-30T20:50:28.139Z,30.05
2023-03-30T20:52:29.638Z,29.10
2023-03-30T20:54:31.149Z,26.08
2023-03-30T20:56:32.572Z,27.77
2023-03-30T20:58:34.002Z,29.42
2023-03-30T21:00:35.404Z,30.20
2023-03-30T21:02:36.875Z,26.80
2023-03-30T21:04:38.394Z,31.08
2023-03-30T21:06:39.999Z,28.40
2023-03-30T21:08:41.641Z,27.33
2023-03-30T21:10:43.221Z,27.77
2023-03-30T21:12:44.632Z,25.38
2023-03-30T21:14:46.174Z,26.88
2023-03-30T21:16:47.608Z,29.77
2023-03-30T21:18:49.634Z,27.38
2023-03-30T21:20:51.432Z,25.10
2023-03-30T21:22:52.840Z,28.30
2023-03-30T21:24:54.319Z,29.48
2023-03-30T21:26:55.993Z,31.98
2023-03-30T21:28:57.429Z,40.42
2023-03-30T21:30:59.904Z,33.67
2023-03-30T21:33:01.853Z,29.45
2023-03-30T21:35:03.369Z,25.48
2023-03-30T21:37:04.859Z,26.63
2023-03-30T21:39:06.412Z,33.08
2023-03-30T21:41:09.611Z,38.10
2023-03-30T21:43:11.008Z,28.02
2023-03-30T21:45:12.766Z,25.92
2023-03-30T21:47:16.611Z,31.52
2023-03-30T21:49:18.044Z,25.85
2023-03-30T21:51:21.424Z,25.45
2023-03-30T21:53:22.814Z,24.35
2023-03-30T21:55:24.228Z,26.98
2023-03-30T21:57:26.167Z,27.02
2023-03-30T21:59:27.649Z,32.28
2023-03-30T22:01:29.329Z,28.55
2023-03-30T22:03:31.172Z,25.52
2023-03-30T22:05:32.667Z,26.83
2023-03-30T22:07:34.081Z,26.02
2023-03-30T22:09:35.542Z,25.85
2023-03-30T22:11:36.980Z,26.20
2023-03-30T22:13:38.389Z,24.60
2023-03-30T22:15:39.921Z,25.80
2023-03-30T22:17:45.920Z,29.17
2023-03-30T22:19:51.969Z,24.42
2023-03-30T22:21:53.463Z,26.70
2023-03-30T22:23:55.055Z,28.38
2023-03-30T22:25:56.535Z,28.27
2023-03-30T22:27:57.935Z,21.85
2023-03-30T22:29:59.560Z,24.77
2023-03-30T22:32:01.017Z,23.52
2023-03-30T22:34:02.506Z,24.08
2023-03-30T22:36:04.824Z,21.92
2023-03-30T22:38:06.932Z,22.42
2023-03-30T22:40:09.862Z,23.50
2023-03-30T22:42:11.331Z,22.88
2023-03-30T22:44:13.026Z,25.17
2023-03-30T22:46:14.539Z,22.75
2023-03-30T22:48:16.012Z,23.52
2023-03-30T22:50:17.623Z,22.95
2023-03-30T22:52:20.676Z,24.98
2023-03-30T22:54:22.355Z,24.38
2023-03-30T22:56:23.812Z,27.13
2023-03-30T22:58:25.426Z,26.67
2023-03-30T23:00:27.094Z,26.55
2023-03-30T23:02:31.238Z,26.95
2023-03-30T23:04:34.290Z,27.23
2023-03-30T23:06:36.566Z,27.95
2023-03-30T23:08:39.314Z,29.02
2023-03-30T23:10:41.504Z,30.08
2023-03-30T23:12:43.232Z,30.13
2023-03-30T23:14:44.758Z,29.38
2023-03-30T23:16:46.398Z,28.42
2023-03-30T23:18:48.495Z,28.05
2023-03-30T23:20:54.057Z,27.95
2023-03-30T23:22:55.451Z,28.27
2023-03-30T23:24:56.849Z,28.50
2023-03-30T23:26:58.379Z,26.63
2023-03-30T23:28:59.792Z,26.65
2023-03-30T23:31:08.471Z,27.75
2023-03-30T23:33:09.936Z,30.10
2023-03-30T23:35:11.335Z,26.92
2023-03-30T23:37:12.816Z,30.92
2023-03-30T23:39:14.403Z,28.48
2023-03-30T23:41:17.060Z,29.45
2023-03-30T23:43:18.583Z,26.98
2023-03-30T23:45:19.998Z,25.35
2023-03-30T23:47:21.621Z,26.50
2023-03-30T23:49:23.137Z,24.45
2023-03-30T23:51:24.599Z,25.42
2023-03-30T23:53:26.618Z,23.42
2023-03-30T23:55:29.131Z,24.27
2023-03-30T23:57:30.618Z,23.63
2023-03-30T23:59:32.090Z,23.98
